Aircraft
UPR1019 PT-QAE TBM 850
CYYC
Calgary International Airport
CYWG
Winnipeg / James Armstrong Richardson International Airport
Pilot:: Rafael
Aircraft:: Black Square TBM 850 Orange
Alternate: CYPG
Network: ivao
FLIGHT DETAILS
Distance: 643nm Duration 02h 14m
Cruise Speed: Flight Level: 19000
Validation: Validated Type Charter
Flight Fuel
ZFW: 2480
Block Fuel/Initial FOB: 213
Flight Fuel: -52
Cargo
Passengers: 5
Cargo: 85
ROUTE
ROUTE: LOMLO Q961 DAPOP LIBOS SEGAP BEFAN5
REMARKS:
DATE
Date: 26-08-29
Departure Time: 2226
Cargo: 85
FLIGHT DETAILS
Crashed: No
Validator Comments: Validado por Claudenir
Flight Rating: 88
LANDING ANALYSIS
Landing wind: 150º/11 kt
Landing heading: 141º
Landing VS:: -74 ft/min
Landing IAS:: 78 kt
Landing Force G: 1 G
Landing Bank: 0
Landing Pitch: -2
Landing Flaps: 100
Navigation Lights: OFF
Landing Lights: ON
Beacon Lights: OFF
Strobe Lights: ON
viserfly

ALTITUDE CHART

viserfly

MAIN EVENTS

DATE EVENT IAS ALTITUDE
2026-08-28 22:15:21 FLYacars version 1.3.6 0 3560
2026-08-28 22:17:05 Aircraft boarding in progress 0 3560
2026-08-28 22:17:05 Navigation Lights ON 0 3560
2026-08-28 22:17:30 Starting Engine 1 0 3560
2026-08-28 22:17:35 Engine 1 shutdown 0 3560
2026-08-28 22:17:35 Starting Engine 1 0 3560
2026-08-28 22:18:17 Taxi Lights ON 0 3560
2026-08-28 22:18:46 FLAPS 50% 0 3560
2026-08-28 22:22:43 Mid air refuel flag, BEFORE: 213kg, NOW: 464kg 0 3560
2026-08-28 22:24:22 Aircraft taxiing to runway 3 3560
2026-08-28 22:24:57 Taxi speed above 25kt 21 3560
2026-08-28 22:25:24 Landing Lights ON 12 3560
2026-08-28 22:25:27 Strobe Lights ON 0 3560
2026-08-28 22:26:33 Detected Take-off roll, HDG 347, IAS 97kt, GS 107kt, G-force 1.1g, Pitch -4.8deg, Bank 0.1deg, Wind 311/02kt, Temp 23°C 97 3583
2026-08-28 22:26:33 Airborne 97 3583
2026-08-28 22:26:33 Beacon lights OFF and engines ON 97 3583
2026-08-28 22:26:35 Gear UP, IAS 100kt, GS 111kt, ALT 12ft AGL 100 3596
2026-08-28 22:27:34 FLAPS 0% 124kt, ALT 4807ft 124 4807
2026-08-28 22:36:41 Landing lights ON above 10000fts 172 11002
2026-08-28 22:43:04 Aircraft on Top Of Climb at 19237ft, IAS 164kt, GS 257kt, HDG 87deg, TAT -15deg, WIND 240/38kt 164 19237
2026-08-29 00:14:46 Aircraft on Top Of Descent at 18498ft, IAS 227kt, GS 338kt, HDG 87deg, TAT -10deg, WIND 292/30kt 227 18498
2026-08-29 00:38:00 Gear DOWN, IAS 154kt, GS 154kt, ALT 2158ft AGL 154 2981
2026-08-29 00:38:00 FLAPS 50% 153kt, ALT 2981ft 153 2981
2026-08-29 00:38:40 FLAPS 100% 124kt, ALT 2068ft 124 2068
2026-08-29 00:40:43 Landed at destination with a landing rate of -74fpm, G-force 1.0g, Pitch -2.4deg, Bank -0.4deg, HDG 141deg, IAS 78kt, GS 71kt, Wind 150/11kt, Temp 21°C 78 784
2026-08-29 00:41:03 Aircraft taxiing to apron 33 780
2026-08-29 00:41:16 Strobe Lights OFF 18 781
2026-08-29 00:41:18 Landing Lights OFF 18 781
2026-08-29 00:42:36 FLAPS 50% 22 781
2026-08-29 00:42:36 FLAPS 0% 23 781
2026-08-29 00:43:12 Aircraft at gate/stand, ground services are moving into position, disembarkation has begun. Remaining FOB 265kg FLYacars v1.3.6 0 781
viserfly

ACARS DATA

DATE IAS GS ALTITUDE FUEL CONSUMED OAT FLIGHT STATUS
2026-08-28 22:15:51 0 0 3560 0 22 BOARDING
2026-08-28 22:16:21 0 0 3560 0 22 BOARDING
2026-08-28 22:16:51 0 0 3560 0 22 BOARDING
2026-08-28 22:17:21 0 0 3560 0 22 BOARDING
2026-08-28 22:17:51 0 0 3560 0 22 BOARDING
2026-08-28 22:18:21 0 0 3560 0 22 BOARDING
2026-08-28 22:18:51 0 0 3560 1 22 BOARDING
2026-08-28 22:19:21 0 0 3560 2 22 BOARDING
2026-08-28 22:19:51 0 0 3560 2 22 BOARDING
2026-08-28 22:20:21 0 0 3560 3 22 BOARDING
2026-08-28 22:20:51 0 0 3560 4 22 BOARDING
2026-08-28 22:21:21 0 0 3560 5 22 BOARDING
2026-08-28 22:21:51 0 0 3560 5 22 BOARDING
2026-08-28 22:22:21 0 0 3560 6 22 BOARDING
2026-08-28 22:22:51 0 0 3560 -406 22 BOARDING
2026-08-28 22:23:21 0 0 3560 -468 22 BOARDING
2026-08-28 22:23:51 0 0 3560 -467 22 BOARDING
2026-08-28 22:24:21 2 4 3560 -466 23 PUSHBACK
2026-08-28 22:24:51 17 21 3560 -466 23 TAXI TO RUNWAY
2026-08-28 22:25:21 27 30 3560 -465 23 TAXI TO RUNWAY
2026-08-28 22:25:51 15 16 3560 -464 23 TAXI TO RUNWAY
2026-08-28 22:26:21 71 78 3566 -463 23 TAKEOFF
2026-08-28 22:26:51 116 130 3776 -461 23 TAKEOFF
2026-08-28 22:27:21 119 141 4519 -459 20 TAKEOFF
2026-08-28 22:27:51 137 153 5119 -458 18 INITIAL CLIMB
2026-08-28 22:28:21 138 158 5953 -456 15 INITIAL CLIMB
2026-08-28 22:28:51 136 160 6868 -454 13 CLIMB
2026-08-28 22:29:21 175 205 7069 -453 12 ENROUTE
2026-08-28 22:29:51 204 240 7067 -451 12 ENROUTE
2026-08-28 22:30:21 219 255 7067 -449 12 ENROUTE
2026-08-28 22:30:51 224 265 7064 -447 12 ENROUTE
2026-08-28 22:31:21 226 271 7063 -446 12 ENROUTE
2026-08-28 22:31:51 222 266 7064 -444 12 ENROUTE
2026-08-28 22:32:21 221 261 7055 -442 12 ENROUTE
2026-08-28 22:32:51 221 260 7053 -441 12 ENROUTE
2026-08-28 22:33:21 219 260 7052 -439 12 ENROUTE
2026-08-28 22:33:51 219 260 7054 -437 12 ENROUTE
2026-08-28 22:34:21 207 244 7542 -436 10 CLIMB
2026-08-28 22:34:51 191 230 8277 -434 8 CLIMB
2026-08-28 22:35:21 183 223 9012 -432 5 CLIMB
2026-08-28 22:35:51 177 221 9751 -431 3 CLIMB
2026-08-28 22:36:21 174 220 10495 -429 1 CLIMB
2026-08-28 22:36:51 171 221 11237 -427 0 CLIMB
2026-08-28 22:37:21 168 221 11979 -426 -1 CLIMB
2026-08-28 22:37:51 165 221 12722 -424 -3 CLIMB
2026-08-28 22:38:21 160 219 13509 -423 -5 CLIMB
2026-08-28 22:38:51 164 229 14092 -421 -6 CLIMB
2026-08-28 22:39:21 162 229 14804 -419 -7 CLIMB
2026-08-28 22:39:51 162 233 15459 -418 -8 CLIMB
2026-08-28 22:40:21 162 239 16050 -416 -9 CLIMB
2026-08-28 22:40:51 162 242 16681 -415 -10 CLIMB
2026-08-28 22:41:21 162 246 17265 -413 -10 CLIMB
2026-08-28 22:41:51 162 248 17880 -412 -12 CLIMB
2026-08-28 22:42:21 162 251 18463 -410 -13 CLIMB
2026-08-28 22:42:51 162 253 19039 -408 -14 CLIMB
2026-08-28 22:43:21 175 272 19248 -407 -15 ENROUTE
2026-08-28 22:43:51 189 291 19258 -405 -15 ENROUTE
2026-08-28 22:44:21 199 304 19255 -404 -15 ENROUTE
2026-08-28 22:44:51 205 311 19261 -402 -14 ENROUTE
2026-08-28 22:45:21 208 315 19266 -401 -14 ENROUTE
2026-08-28 22:45:51 212 319 19185 -399 -14 ENROUTE
2026-08-28 22:46:21 212 320 19187 -398 -14 ENROUTE
2026-08-28 22:46:51 212 320 19186 -396 -14 ENROUTE
2026-08-28 22:47:21 213 321 19185 -394 -14 ENROUTE
2026-08-28 22:47:51 213 321 19185 -393 -14 ENROUTE
2026-08-28 22:48:21 211 321 19189 -391 -14 ENROUTE
2026-08-28 22:48:51 212 321 19203 -390 -14 ENROUTE
2026-08-28 22:49:21 212 322 19203 -388 -14 ENROUTE
2026-08-28 22:49:51 212 322 19203 -387 -14 ENROUTE
2026-08-28 22:50:21 212 324 19204 -385 -14 ENROUTE
2026-08-28 22:50:51 212 324 19204 -384 -14 ENROUTE
2026-08-28 22:51:21 212 324 19204 -382 -14 ENROUTE
2026-08-28 22:51:51 212 324 19204 -380 -14 ENROUTE
2026-08-28 22:52:21 212 324 19204 -379 -14 ENROUTE
2026-08-28 22:52:51 212 325 19204 -377 -14 ENROUTE
2026-08-28 22:53:21 212 325 19203 -376 -14 ENROUTE
2026-08-28 22:53:51 212 325 19204 -374 -14 ENROUTE
2026-08-28 22:54:21 213 325 19202 -373 -14 ENROUTE
2026-08-28 22:54:51 212 325 19204 -371 -14 ENROUTE
2026-08-28 22:55:21 213 326 19203 -370 -14 ENROUTE
2026-08-28 22:55:51 211 327 19224 -368 -14 ENROUTE
2026-08-28 22:56:21 212 327 19231 -366 -14 ENROUTE
2026-08-28 22:56:51 212 327 19232 -365 -14 ENROUTE
2026-08-28 22:57:21 213 328 19232 -363 -14 ENROUTE
2026-08-28 22:57:51 213 328 19232 -362 -14 ENROUTE
2026-08-28 22:58:21 213 328 19232 -360 -14 ENROUTE
2026-08-28 22:58:51 213 328 19232 -359 -14 ENROUTE
2026-08-28 22:59:21 213 328 19232 -357 -14 ENROUTE
2026-08-28 22:59:51 212 329 19231 -356 -13 ENROUTE
2026-08-28 23:00:21 212 329 19237 -354 -13 ENROUTE
2026-08-28 23:00:51 213 329 19235 -352 -13 ENROUTE
2026-08-28 23:01:21 213 329 19235 -351 -13 ENROUTE
2026-08-28 23:01:51 213 329 19235 -349 -13 ENROUTE
2026-08-28 23:02:21 212 328 19234 -348 -14 ENROUTE
2026-08-28 23:02:51 212 328 19233 -346 -13 ENROUTE
2026-08-28 23:03:21 212 327 19264 -345 -13 ENROUTE
2026-08-28 23:03:51 212 327 19264 -343 -13 ENROUTE
2026-08-28 23:04:21 212 327 19265 -342 -13 ENROUTE
2026-08-28 23:04:51 212 328 19264 -340 -13 ENROUTE
2026-08-28 23:05:21 212 328 19264 -338 -13 ENROUTE
2026-08-28 23:05:51 212 328 19265 -337 -13 ENROUTE
2026-08-28 23:06:21 212 328 19264 -335 -13 ENROUTE
2026-08-28 23:06:51 213 328 19264 -334 -13 ENROUTE
2026-08-28 23:07:21 212 327 19273 -332 -13 ENROUTE
2026-08-28 23:07:51 212 327 19272 -331 -13 ENROUTE
2026-08-28 23:08:21 212 327 19272 -329 -13 ENROUTE
2026-08-28 23:08:51 212 327 19272 -328 -13 ENROUTE
2026-08-28 23:09:21 212 327 19272 -326 -13 ENROUTE
2026-08-28 23:09:51 212 327 19272 -324 -13 ENROUTE
2026-08-28 23:10:21 213 327 19286 -323 -13 ENROUTE
2026-08-28 23:10:51 213 326 19292 -321 -13 ENROUTE
2026-08-28 23:11:21 212 326 19291 -320 -13 ENROUTE
2026-08-28 23:11:51 212 326 19292 -318 -13 ENROUTE
2026-08-28 23:12:21 213 326 19292 -317 -13 ENROUTE
2026-08-28 23:12:51 213 326 19292 -315 -13 ENROUTE
2026-08-28 23:13:21 213 326 19291 -314 -13 ENROUTE
2026-08-28 23:13:51 213 326 19292 -312 -13 ENROUTE
2026-08-28 23:14:21 213 325 19305 -310 -13 ENROUTE
2026-08-28 23:14:51 213 325 19304 -309 -13 ENROUTE
2026-08-28 23:15:21 213 325 19305 -307 -13 ENROUTE
2026-08-28 23:15:51 213 325 19305 -306 -13 ENROUTE
2026-08-28 23:16:21 213 325 19304 -304 -13 ENROUTE
2026-08-28 23:16:51 213 325 19304 -303 -13 ENROUTE
2026-08-28 23:17:21 213 325 19304 -301 -13 ENROUTE
2026-08-28 23:17:51 213 324 19326 -300 -13 ENROUTE
2026-08-28 23:18:21 213 323 19329 -298 -13 ENROUTE
2026-08-28 23:18:51 213 323 19329 -296 -13 ENROUTE
2026-08-28 23:19:21 213 323 19329 -295 -13 ENROUTE
2026-08-28 23:19:51 212 323 19330 -293 -13 ENROUTE
2026-08-28 23:20:21 212 323 19330 -292 -13 ENROUTE
2026-08-28 23:20:51 212 323 19329 -290 -13 ENROUTE
2026-08-28 23:21:21 213 322 19333 -289 -13 ENROUTE
2026-08-28 23:21:51 212 322 19334 -287 -13 ENROUTE
2026-08-28 23:22:21 213 322 19335 -286 -13 ENROUTE
2026-08-28 23:22:51 212 322 19335 -284 -13 ENROUTE
2026-08-28 23:23:21 213 322 19335 -282 -13 ENROUTE
2026-08-28 23:23:51 213 322 19335 -281 -13 ENROUTE
2026-08-28 23:24:21 213 322 19334 -279 -13 ENROUTE
2026-08-28 23:24:51 213 322 19335 -278 -13 ENROUTE
2026-08-28 23:25:21 213 321 19354 -276 -13 ENROUTE
2026-08-28 23:25:51 213 320 19356 -275 -13 ENROUTE
2026-08-28 23:26:21 213 319 19355 -273 -13 ENROUTE
2026-08-28 23:26:51 212 319 19356 -272 -13 ENROUTE
2026-08-28 23:27:21 212 319 19355 -270 -13 ENROUTE
2026-08-28 23:27:51 212 319 19354 -269 -13 ENROUTE
2026-08-28 23:28:21 212 319 19355 -267 -13 ENROUTE
2026-08-28 23:28:51 212 319 19360 -265 -13 ENROUTE
2026-08-28 23:29:21 212 319 19359 -264 -13 ENROUTE
2026-08-28 23:29:51 212 319 19360 -262 -13 ENROUTE
2026-08-28 23:30:21 212 320 19362 -261 -13 ENROUTE
2026-08-28 23:30:51 212 320 19361 -259 -13 ENROUTE
2026-08-28 23:31:21 212 319 19362 -258 -13 ENROUTE
2026-08-28 23:31:51 212 319 19362 -256 -13 ENROUTE
2026-08-28 23:32:21 212 319 19362 -255 -13 ENROUTE
2026-08-28 23:32:51 212 320 19362 -253 -13 ENROUTE
2026-08-28 23:33:21 212 320 19382 -251 -13 ENROUTE
2026-08-28 23:33:51 212 320 19382 -250 -13 ENROUTE
2026-08-28 23:34:21 212 321 19383 -248 -13 ENROUTE
2026-08-28 23:34:51 213 321 19383 -247 -13 ENROUTE
2026-08-28 23:35:21 212 321 19383 -245 -13 ENROUTE
2026-08-28 23:35:51 213 321 19383 -244 -13 ENROUTE
2026-08-28 23:36:21 212 321 19382 -242 -12 ENROUTE
2026-08-28 23:36:51 212 322 19381 -241 -12 ENROUTE
2026-08-28 23:37:21 212 322 19382 -239 -12 ENROUTE
2026-08-28 23:37:51 212 322 19382 -237 -12 ENROUTE
2026-08-28 23:38:21 213 322 19382 -236 -12 ENROUTE
2026-08-28 23:38:51 213 322 19382 -234 -12 ENROUTE
2026-08-28 23:39:21 212 322 19381 -233 -12 ENROUTE
2026-08-28 23:39:51 215 321 19396 -231 -12 ENROUTE
2026-08-28 23:40:21 214 319 19396 -230 -12 ENROUTE
2026-08-28 23:40:51 213 318 19409 -228 -12 ENROUTE
2026-08-28 23:41:21 213 318 19408 -227 -12 ENROUTE
2026-08-28 23:41:51 213 318 19408 -225 -12 ENROUTE
2026-08-28 23:42:21 213 318 19407 -223 -12 ENROUTE
2026-08-28 23:42:51 212 317 19407 -222 -12 ENROUTE
2026-08-28 23:43:21 212 317 19406 -220 -12 ENROUTE
2026-08-28 23:43:51 212 318 19406 -219 -12 ENROUTE
2026-08-28 23:44:21 212 319 19409 -217 -12 ENROUTE
2026-08-28 23:44:51 212 319 19410 -216 -12 ENROUTE
2026-08-28 23:45:21 212 320 19410 -214 -13 ENROUTE
2026-08-28 23:45:51 213 320 19410 -213 -13 ENROUTE
2026-08-28 23:46:21 213 320 19410 -211 -13 ENROUTE
2026-08-28 23:46:51 213 320 19410 -210 -13 ENROUTE
2026-08-28 23:47:21 213 320 19409 -208 -13 ENROUTE
2026-08-28 23:47:51 213 320 19410 -206 -13 ENROUTE
2026-08-28 23:48:21 213 320 19409 -205 -13 ENROUTE
2026-08-28 23:48:51 213 320 19409 -203 -13 ENROUTE
2026-08-28 23:49:21 213 320 19409 -202 -13 ENROUTE
2026-08-28 23:49:51 213 320 19409 -200 -13 ENROUTE
2026-08-28 23:50:21 213 320 19409 -199 -13 ENROUTE
2026-08-28 23:50:51 211 321 19407 -197 -12 ENROUTE
2026-08-28 23:51:21 212 321 19407 -196 -12 ENROUTE
2026-08-28 23:51:51 212 322 19407 -194 -12 ENROUTE
2026-08-28 23:52:21 212 322 19407 -192 -12 ENROUTE
2026-08-28 23:52:51 213 322 19407 -191 -12 ENROUTE
2026-08-28 23:53:21 213 323 19408 -189 -12 ENROUTE
2026-08-28 23:53:51 213 323 19407 -188 -12 ENROUTE
2026-08-28 23:54:21 215 322 19408 -186 -13 ENROUTE
2026-08-28 23:54:51 214 322 19409 -185 -13 ENROUTE
2026-08-28 23:55:21 214 321 19408 -183 -13 ENROUTE
2026-08-28 23:55:51 212 321 19425 -182 -13 ENROUTE
2026-08-28 23:56:21 213 321 19424 -180 -13 ENROUTE
2026-08-28 23:56:51 213 321 19424 -178 -13 ENROUTE
2026-08-28 23:57:21 213 322 19424 -177 -13 ENROUTE
2026-08-28 23:57:51 213 322 19425 -175 -13 ENROUTE
2026-08-28 23:58:21 213 322 19424 -174 -13 ENROUTE
2026-08-28 23:58:51 213 322 19424 -172 -13 ENROUTE
2026-08-28 23:59:21 213 322 19425 -171 -13 ENROUTE
2026-08-28 23:59:51 213 322 19424 -169 -13 ENROUTE
2026-08-29 00:00:21 213 322 19424 -168 -13 ENROUTE
2026-08-29 00:00:51 213 322 19424 -166 -13 ENROUTE
2026-08-29 00:01:21 213 322 19424 -164 -13 ENROUTE
2026-08-29 00:01:51 213 323 19423 -163 -13 ENROUTE
2026-08-29 00:02:21 213 323 19423 -161 -13 ENROUTE
2026-08-29 00:02:51 213 323 19430 -160 -12 ENROUTE
2026-08-29 00:03:21 213 323 19433 -158 -12 ENROUTE
2026-08-29 00:03:51 213 323 19433 -157 -12 ENROUTE
2026-08-29 00:04:21 213 323 19433 -155 -12 ENROUTE
2026-08-29 00:04:51 213 323 19433 -154 -12 ENROUTE
2026-08-29 00:05:21 213 324 19433 -152 -12 ENROUTE
2026-08-29 00:05:51 213 324 19432 -150 -12 ENROUTE
2026-08-29 00:06:21 213 324 19432 -149 -12 ENROUTE
2026-08-29 00:06:51 213 324 19433 -147 -12 ENROUTE
2026-08-29 00:07:21 213 324 19432 -146 -12 ENROUTE
2026-08-29 00:07:51 213 324 19432 -144 -12 ENROUTE
2026-08-29 00:08:21 213 324 19432 -143 -12 ENROUTE
2026-08-29 00:08:51 213 324 19432 -141 -12 ENROUTE
2026-08-29 00:09:21 213 325 19432 -140 -12 ENROUTE
2026-08-29 00:09:51 213 325 19432 -138 -12 ENROUTE
2026-08-29 00:10:21 213 325 19436 -136 -12 ENROUTE
2026-08-29 00:10:51 213 325 19436 -135 -12 ENROUTE
2026-08-29 00:11:21 213 325 19436 -133 -12 ENROUTE
2026-08-29 00:11:51 213 325 19436 -132 -12 ENROUTE
2026-08-29 00:12:21 212 325 19435 -130 -12 ENROUTE
2026-08-29 00:12:51 213 326 19434 -129 -12 ENROUTE
2026-08-29 00:13:21 213 325 19435 -127 -12 ENROUTE
2026-08-29 00:13:51 210 321 19549 -126 -12 CLIMB
2026-08-29 00:14:21 221 334 18985 -124 -11 DESCENT
2026-08-29 00:14:51 227 338 18393 -123 -10 DESCENT
2026-08-29 00:15:21 230 337 17797 -121 -8 DESCENT
2026-08-29 00:15:51 232 334 17201 -120 -7 DESCENT
2026-08-29 00:16:21 233 331 16603 -118 -6 DESCENT
2026-08-29 00:16:51 233 327 16004 -117 -5 DESCENT
2026-08-29 00:17:21 233 324 15407 -116 -4 DESCENT
2026-08-29 00:17:51 234 320 14805 -114 -2 DESCENT
2026-08-29 00:18:21 234 316 14206 -113 -1 DESCENT
2026-08-29 00:18:51 232 311 13672 -111 0 DESCENT
2026-08-29 00:19:21 226 298 13420 -110 0 DESCENT
2026-08-29 00:19:51 223 292 13167 -108 0 DESCENT
2026-08-29 00:20:21 221 289 12914 -107 0 DESCENT
2026-08-29 00:20:51 219 288 12662 -105 1 DESCENT
2026-08-29 00:21:21 220 287 12412 -104 2 DESCENT
2026-08-29 00:21:51 220 286 12163 -102 2 DESCENT
2026-08-29 00:22:21 220 284 11913 -101 2 DESCENT
2026-08-29 00:22:51 220 283 11662 -99 3 DESCENT
2026-08-29 00:23:21 219 282 11412 -98 3 DESCENT
2026-08-29 00:23:51 221 281 11163 -96 4 DESCENT
2026-08-29 00:24:21 219 280 10913 -95 4 DESCENT
2026-08-29 00:24:51 222 280 10663 -93 5 DESCENT
2026-08-29 00:25:21 219 278 10413 -92 5 DESCENT
2026-08-29 00:25:51 221 278 10163 -90 5 DESCENT
2026-08-29 00:26:21 220 274 9913 -89 6 DESCENT
2026-08-29 00:26:51 217 274 9661 -87 6 DESCENT
2026-08-29 00:27:21 216 272 9413 -86 7 DESCENT
2026-08-29 00:27:51 217 271 9164 -85 7 DESCENT
2026-08-29 00:28:21 209 257 9149 -83 7 ENROUTE
2026-08-29 00:28:51 201 252 8921 -82 8 DESCENT
2026-08-29 00:29:21 199 244 8416 -81 9 DESCENT
2026-08-29 00:29:51 193 240 7913 -79 10 DESCENT
2026-08-29 00:30:21 196 237 7412 -78 11 DESCENT
2026-08-29 00:30:51 193 235 6914 -77 12 DESCENT
2026-08-29 00:31:21 197 232 6651 -76 12 DESCENT
2026-08-29 00:31:51 201 236 6402 -75 13 DESCENT
2026-08-29 00:32:21 200 236 6155 -73 13 DESCENT
2026-08-29 00:32:51 201 235 5908 -72 13 DESCENT
2026-08-29 00:33:21 196 231 5750 -71 14 ENROUTE
2026-08-29 00:33:51 192 228 5687 -69 14 DESCENT
2026-08-29 00:34:21 189 222 5238 -68 14 ENROUTE
2026-08-29 00:34:51 192 222 4719 -67 15 DESCENT
2026-08-29 00:35:21 168 188 3468 -66 16 DESCENT
2026-08-29 00:35:51 116 116 2974 -65 16 DESCENT
2026-08-29 00:36:21 90 81 2975 -65 16 DESCENT
2026-08-29 00:36:51 153 148 3013 -63 16 DESCENT
2026-08-29 00:37:21 160 158 3001 -62 16 DESCENT
2026-08-29 00:37:51 163 164 2973 -61 16 DESCENT
2026-08-29 00:38:21 125 120 2622 -60 17 APPROACH
2026-08-29 00:38:51 100 91 1956 -59 19 APPROACH
2026-08-29 00:39:21 101 96 1518 -58 20 ON FINAL
2026-08-29 00:39:51 96 96 1210 -57 21 ON FINAL
2026-08-29 00:40:21 100 96 840 -56 21 ON FINAL
2026-08-29 00:40:51 60 53 782 -56 21 ON FINAL
2026-08-29 00:41:21 19 12 781 -55 21 TAXI TO APRON
2026-08-29 00:41:51 33 27 781 -54 21 TAXI TO APRON
2026-08-29 00:42:21 14 21 781 -53 21 TAXI TO APRON
2026-08-29 00:42:51 0 5 781 -53 21 TAXI TO APRON
  • Join our VA!

    It has been 11 years of great learning, friendships, and stories.

  • Sign up now!